sensor_id;sensor_type;location;lat;lon;timestamp;P1;durP1;ratioP1;P2;durP2;ratioP2
41293;SDS011;27037;52.010;4.446;2023-03-04T00:01:44;15.50;;;2.67;;
41293;SDS011;27037;52.010;4.446;2023-03-04T00:04:10;18.13;;;2.75;;
41293;SDS011;27037;52.010;4.446;2023-03-04T00:06:35;20.50;;;2.90;;
41293;SDS011;27037;52.010;4.446;2023-03-04T00:09:01;18.52;;;2.80;;
41293;SDS011;27037;52.010;4.446;2023-03-04T00:11:28;23.25;;;2.83;;
41293;SDS011;27037;52.010;4.446;2023-03-04T00:13:54;17.08;;;2.92;;
41293;SDS011;27037;52.010;4.446;2023-03-04T00:16:20;20.95;;;2.40;;
41293;SDS011;27037;52.010;4.446;2023-03-04T00:18:46;20.73;;;2.35;;
41293;SDS011;27037;52.010;4.446;2023-03-04T00:21:11;17.13;;;2.58;;
41293;SDS011;27037;52.010;4.446;2023-03-04T00:23:37;14.98;;;2.95;;
41293;SDS011;27037;52.010;4.446;2023-03-04T00:26:05;20.13;;;2.50;;
41293;SDS011;27037;52.010;4.446;2023-03-04T00:28:32;18.95;;;2.47;;
41293;SDS011;27037;52.010;4.446;2023-03-04T00:30:57;20.38;;;2.28;;
41293;SDS011;27037;52.010;4.446;2023-03-04T00:33:23;19.92;;;2.60;;
41293;SDS011;27037;52.010;4.446;2023-03-04T00:35:48;24.08;;;2.72;;
41293;SDS011;27037;52.010;4.446;2023-03-04T00:38:14;21.10;;;2.42;;
41293;SDS011;27037;52.010;4.446;2023-03-04T00:40:40;15.63;;;2.40;;
41293;SDS011;27037;52.010;4.446;2023-03-04T00:43:05;18.60;;;2.58;;
41293;SDS011;27037;52.010;4.446;2023-03-04T00:45:33;19.17;;;2.55;;
41293;SDS011;27037;52.010;4.446;2023-03-04T00:47:59;18.45;;;2.78;;
41293;SDS011;27037;52.010;4.446;2023-03-04T00:50:25;25.60;;;2.78;;
41293;SDS011;27037;52.010;4.446;2023-03-04T00:52:50;17.58;;;2.83;;
41293;SDS011;27037;52.010;4.446;2023-03-04T00:55:16;15.95;;;2.20;;
41293;SDS011;27037;52.010;4.446;2023-03-04T00:57:41;19.10;;;3.17;;
41293;SDS011;27037;52.010;4.446;2023-03-04T01:00:07;16.20;;;1.65;;
41293;SDS011;27037;52.010;4.446;2023-03-04T01:02:33;24.92;;;3.13;;
41293;SDS011;27037;52.010;4.446;2023-03-04T01:04:59;18.38;;;2.20;;
41293;SDS011;27037;52.010;4.446;2023-03-04T01:07:25;18.40;;;2.10;;
41293;SDS011;27037;52.010;4.446;2023-03-04T01:09:50;16.30;;;1.83;;
41293;SDS011;27037;52.010;4.446;2023-03-04T01:12:16;20.88;;;2.83;;
41293;SDS011;27037;52.010;4.446;2023-03-04T01:14:47;17.35;;;2.60;;
41293;SDS011;27037;52.010;4.446;2023-03-04T01:17:13;16.38;;;2.10;;
41293;SDS011;27037;52.010;4.446;2023-03-04T01:19:38;16.10;;;2.17;;
41293;SDS011;27037;52.010;4.446;2023-03-04T01:22:04;20.23;;;2.20;;
41293;SDS011;27037;52.010;4.446;2023-03-04T01:24:29;18.88;;;2.30;;
41293;SDS011;27037;52.010;4.446;2023-03-04T01:26:55;17.15;;;2.78;;
41293;SDS011;27037;52.010;4.446;2023-03-04T01:29:21;11.40;;;1.90;;
41293;SDS011;27037;52.010;4.446;2023-03-04T01:31:46;15.82;;;2.20;;
41293;SDS011;27037;52.010;4.446;2023-03-04T01:34:12;11.82;;;1.80;;
41293;SDS011;27037;52.010;4.446;2023-03-04T01:36:38;22.90;;;2.20;;
41293;SDS011;27037;52.010;4.446;2023-03-04T01:39:04;21.65;;;2.20;;
41293;SDS011;27037;52.010;4.446;2023-03-04T01:41:30;19.55;;;2.47;;
41293;SDS011;27037;52.010;4.446;2023-03-04T01:43:57;14.23;;;2.03;;
41293;SDS011;27037;52.010;4.446;2023-03-04T01:46:26;24.38;;;2.58;;
41293;SDS011;27037;52.010;4.446;2023-03-04T01:48:55;14.57;;;2.38;;
41293;SDS011;27037;52.010;4.446;2023-03-04T01:51:21;18.73;;;2.40;;
41293;SDS011;27037;52.010;4.446;2023-03-04T01:53:48;13.40;;;2.03;;
41293;SDS011;27037;52.010;4.446;2023-03-04T01:56:33;19.80;;;2.63;;
41293;SDS011;27037;52.010;4.446;2023-03-04T01:59:13;17.40;;;1.92;;
41293;SDS011;27037;52.010;4.446;2023-03-04T02:01:42;17.23;;;2.33;;
41293;SDS011;27037;52.010;4.446;2023-03-04T02:04:13;15.50;;;2.20;;
41293;SDS011;27037;52.010;4.446;2023-03-04T02:06:41;14.43;;;1.98;;
41293;SDS011;27037;52.010;4.446;2023-03-04T02:09:08;14.18;;;2.45;;
41293;SDS011;27037;52.010;4.446;2023-03-04T02:11:34;17.33;;;2.40;;
41293;SDS011;27037;52.010;4.446;2023-03-04T02:14:01;15.02;;;2.10;;
41293;SDS011;27037;52.010;4.446;2023-03-04T02:16:27;16.35;;;1.67;;
41293;SDS011;27037;52.010;4.446;2023-03-04T02:18:53;13.23;;;1.90;;
41293;SDS011;27037;52.010;4.446;2023-03-04T02:21:26;15.02;;;2.00;;
41293;SDS011;27037;52.010;4.446;2023-03-04T02:26:35;22.23;;;2.95;;
41293;SDS011;27037;52.010;4.446;2023-03-04T02:29:02;17.13;;;2.30;;
41293;SDS011;27037;52.010;4.446;2023-03-04T02:34:22;20.38;;;2.40;;
41293;SDS011;27037;52.010;4.446;2023-03-04T02:36:52;12.95;;;2.20;;
41293;SDS011;27037;52.010;4.446;2023-03-04T02:41:44;18.70;;;2.00;;
41293;SDS011;27037;52.010;4.446;2023-03-04T02:44:15;14.07;;;2.10;;
41293;SDS011;27037;52.010;4.446;2023-03-04T02:46:43;15.13;;;2.00;;
41293;SDS011;27037;52.010;4.446;2023-03-04T02:49:09;16.83;;;2.60;;
41293;SDS011;27037;52.010;4.446;2023-03-04T02:51:35;18.85;;;2.10;;
41293;SDS011;27037;52.010;4.446;2023-03-04T02:54:01;18.33;;;2.28;;
41293;SDS011;27037;52.010;4.446;2023-03-04T02:56:26;13.68;;;2.22;;
41293;SDS011;27037;52.010;4.446;2023-03-04T02:58:52;15.88;;;2.22;;
41293;SDS011;27037;52.010;4.446;2023-03-04T03:01:18;13.23;;;2.00;;
41293;SDS011;27037;52.010;4.446;2023-03-04T03:03:43;12.82;;;1.90;;
41293;SDS011;27037;52.010;4.446;2023-03-04T03:06:09;16.75;;;2.85;;
41293;SDS011;27037;52.010;4.446;2023-03-04T03:08:35;15.40;;;2.33;;
41293;SDS011;27037;52.010;4.446;2023-03-04T03:11:00;16.13;;;2.53;;
41293;SDS011;27037;52.010;4.446;2023-03-04T03:13:26;18.17;;;1.92;;
41293;SDS011;27037;52.010;4.446;2023-03-04T03:15:53;12.20;;;2.28;;
41293;SDS011;27037;52.010;4.446;2023-03-04T03:18:18;14.73;;;2.42;;
41293;SDS011;27037;52.010;4.446;2023-03-04T03:20:44;15.63;;;2.30;;
41293;SDS011;27037;52.010;4.446;2023-03-04T03:23:10;16.05;;;1.90;;
41293;SDS011;27037;52.010;4.446;2023-03-04T03:25:36;16.63;;;1.77;;
41293;SDS011;27037;52.010;4.446;2023-03-04T03:28:02;14.10;;;1.63;;
41293;SDS011;27037;52.010;4.446;2023-03-04T03:30:27;13.07;;;1.92;;
41293;SDS011;27037;52.010;4.446;2023-03-04T03:32:53;16.00;;;2.15;;
41293;SDS011;27037;52.010;4.446;2023-03-04T03:35:19;14.43;;;2.33;;
41293;SDS011;27037;52.010;4.446;2023-03-04T03:37:45;14.23;;;2.30;;
41293;SDS011;27037;52.010;4.446;2023-03-04T03:40:12;22.25;;;2.10;;
41293;SDS011;27037;52.010;4.446;2023-03-04T03:42:38;11.23;;;1.52;;
41293;SDS011;27037;52.010;4.446;2023-03-04T03:45:04;14.93;;;1.83;;
41293;SDS011;27037;52.010;4.446;2023-03-04T03:47:30;15.68;;;1.80;;
41293;SDS011;27037;52.010;4.446;2023-03-04T03:49:56;19.50;;;2.70;;
41293;SDS011;27037;52.010;4.446;2023-03-04T03:52:22;17.23;;;2.00;;
41293;SDS011;27037;52.010;4.446;2023-03-04T03:54:47;14.43;;;2.28;;
41293;SDS011;27037;52.010;4.446;2023-03-04T03:57:13;17.20;;;2.10;;
41293;SDS011;27037;52.010;4.446;2023-03-04T03:59:39;11.60;;;2.10;;
41293;SDS011;27037;52.010;4.446;2023-03-04T04:02:04;12.32;;;1.80;;
41293;SDS011;27037;52.010;4.446;2023-03-04T04:04:30;15.10;;;1.85;;
41293;SDS011;27037;52.010;4.446;2023-03-04T04:06:56;12.93;;;2.17;;
41293;SDS011;27037;52.010;4.446;2023-03-04T04:09:21;13.55;;;1.85;;
41293;SDS011;27037;52.010;4.446;2023-03-04T04:11:47;7.70;;;1.75;;
41293;SDS011;27037;52.010;4.446;2023-03-04T04:14:13;8.70;;;1.40;;
41293;SDS011;27037;52.010;4.446;2023-03-04T04:16:38;10.43;;;1.75;;
41293;SDS011;27037;52.010;4.446;2023-03-04T04:19:05;11.68;;;2.20;;
41293;SDS011;27037;52.010;4.446;2023-03-04T04:21:30;7.18;;;1.45;;
41293;SDS011;27037;52.010;4.446;2023-03-04T04:23:56;7.85;;;1.65;;
41293;SDS011;27037;52.010;4.446;2023-03-04T04:26:22;14.82;;;1.92;;
41293;SDS011;27037;52.010;4.446;2023-03-04T04:28:47;11.63;;;1.70;;
41293;SDS011;27037;52.010;4.446;2023-03-04T04:31:13;9.77;;;1.83;;
41293;SDS011;27037;52.010;4.446;2023-03-04T04:33:40;11.45;;;1.67;;
41293;SDS011;27037;52.010;4.446;2023-03-04T04:36:05;9.88;;;1.92;;
41293;SDS011;27037;52.010;4.446;2023-03-04T04:38:33;16.13;;;2.22;;
41293;SDS011;27037;52.010;4.446;2023-03-04T04:40:59;14.85;;;2.60;;
41293;SDS011;27037;52.010;4.446;2023-03-04T04:43:24;12.45;;;2.05;;
41293;SDS011;27037;52.010;4.446;2023-03-04T04:45:50;13.80;;;1.92;;
41293;SDS011;27037;52.010;4.446;2023-03-04T04:48:16;16.08;;;1.98;;
41293;SDS011;27037;52.010;4.446;2023-03-04T04:50:41;11.15;;;2.15;;
41293;SDS011;27037;52.010;4.446;2023-03-04T04:53:08;15.85;;;2.22;;
41293;SDS011;27037;52.010;4.446;2023-03-04T04:55:36;13.20;;;2.13;;
41293;SDS011;27037;52.010;4.446;2023-03-04T04:58:04;13.57;;;2.35;;
41293;SDS011;27037;52.010;4.446;2023-03-04T05:00:30;15.75;;;1.90;;
41293;SDS011;27037;52.010;4.446;2023-03-04T05:02:56;9.02;;;2.08;;
41293;SDS011;27037;52.010;4.446;2023-03-04T05:05:21;16.23;;;2.05;;
41293;SDS011;27037;52.010;4.446;2023-03-04T05:07:47;9.07;;;1.85;;
41293;SDS011;27037;52.010;4.446;2023-03-04T05:10:13;10.88;;;2.13;;
41293;SDS011;27037;52.010;4.446;2023-03-04T05:12:38;12.43;;;1.83;;
41293;SDS011;27037;52.010;4.446;2023-03-04T05:15:04;12.07;;;2.33;;
41293;SDS011;27037;52.010;4.446;2023-03-04T05:17:30;12.00;;;2.22;;
41293;SDS011;27037;52.010;4.446;2023-03-04T05:19:55;14.20;;;2.40;;
41293;SDS011;27037;52.010;4.446;2023-03-04T05:22:21;18.35;;;2.25;;
41293;SDS011;27037;52.010;4.446;2023-03-04T05:24:46;13.50;;;1.95;;
41293;SDS011;27037;52.010;4.446;2023-03-04T05:27:12;16.08;;;1.92;;
41293;SDS011;27037;52.010;4.446;2023-03-04T05:29:38;8.65;;;2.00;;
41293;SDS011;27037;52.010;4.446;2023-03-04T05:32:03;10.18;;;1.95;;
41293;SDS011;27037;52.010;4.446;2023-03-04T05:34:29;10.23;;;1.70;;
41293;SDS011;27037;52.010;4.446;2023-03-04T05:36:54;14.38;;;2.20;;
41293;SDS011;27037;52.010;4.446;2023-03-04T05:39:20;18.17;;;2.03;;
41293;SDS011;27037;52.010;4.446;2023-03-04T05:41:46;22.58;;;2.20;;
41293;SDS011;27037;52.010;4.446;2023-03-04T05:44:11;13.02;;;2.10;;
41293;SDS011;27037;52.010;4.446;2023-03-04T05:46:37;11.45;;;1.55;;
41293;SDS011;27037;52.010;4.446;2023-03-04T05:49:02;13.07;;;1.75;;
41293;SDS011;27037;52.010;4.446;2023-03-04T05:51:28;13.38;;;1.80;;
41293;SDS011;27037;52.010;4.446;2023-03-04T05:53:54;12.68;;;1.90;;
41293;SDS011;27037;52.010;4.446;2023-03-04T05:56:19;12.35;;;2.03;;
41293;SDS011;27037;52.010;4.446;2023-03-04T05:58:45;6.63;;;1.40;;
41293;SDS011;27037;52.010;4.446;2023-03-04T06:01:14;10.95;;;1.95;;
41293;SDS011;27037;52.010;4.446;2023-03-04T06:03:40;9.05;;;1.90;;
41293;SDS011;27037;52.010;4.446;2023-03-04T06:06:07;15.48;;;2.28;;
41293;SDS011;27037;52.010;4.446;2023-03-04T06:08:33;14.95;;;2.20;;
41293;SDS011;27037;52.010;4.446;2023-03-04T06:10:59;13.80;;;2.95;;
41293;SDS011;27037;52.010;4.446;2023-03-04T06:13:25;14.05;;;2.08;;
41293;SDS011;27037;52.010;4.446;2023-03-04T06:15:54;13.13;;;2.03;;
41293;SDS011;27037;52.010;4.446;2023-03-04T06:18:21;14.70;;;2.10;;
41293;SDS011;27037;52.010;4.446;2023-03-04T06:20:47;9.07;;;2.00;;
41293;SDS011;27037;52.010;4.446;2023-03-04T06:23:13;14.95;;;2.05;;
41293;SDS011;27037;52.010;4.446;2023-03-04T06:25:39;10.27;;;2.08;;
41293;SDS011;27037;52.010;4.446;2023-03-04T06:28:04;13.52;;;2.10;;
41293;SDS011;27037;52.010;4.446;2023-03-04T06:30:30;12.48;;;1.92;;
41293;SDS011;27037;52.010;4.446;2023-03-04T06:32:56;12.15;;;2.42;;
41293;SDS011;27037;52.010;4.446;2023-03-04T06:35:21;16.98;;;2.40;;
41293;SDS011;27037;52.010;4.446;2023-03-04T06:37:47;8.93;;;1.95;;
41293;SDS011;27037;52.010;4.446;2023-03-04T06:40:13;13.65;;;2.47;;
41293;SDS011;27037;52.010;4.446;2023-03-04T06:42:39;10.57;;;2.22;;
41293;SDS011;27037;52.010;4.446;2023-03-04T06:45:05;15.63;;;2.53;;
41293;SDS011;27037;52.010;4.446;2023-03-04T06:47:32;10.75;;;2.22;;
41293;SDS011;27037;52.010;4.446;2023-03-04T06:49:58;19.15;;;2.70;;
41293;SDS011;27037;52.010;4.446;2023-03-04T06:52:23;12.80;;;2.60;;
41293;SDS011;27037;52.010;4.446;2023-03-04T06:54:49;14.95;;;2.75;;
41293;SDS011;27037;52.010;4.446;2023-03-04T06:57:15;10.15;;;2.55;;
41293;SDS011;27037;52.010;4.446;2023-03-04T06:59:40;10.50;;;2.13;;
41293;SDS011;27037;52.010;4.446;2023-03-04T07:02:08;16.73;;;2.50;;
41293;SDS011;27037;52.010;4.446;2023-03-04T07:04:35;9.80;;;2.10;;
41293;SDS011;27037;52.010;4.446;2023-03-04T07:07:04;11.23;;;2.25;;
41293;SDS011;27037;52.010;4.446;2023-03-04T07:09:29;14.00;;;2.55;;
41293;SDS011;27037;52.010;4.446;2023-03-04T07:11:55;11.85;;;2.10;;
41293;SDS011;27037;52.010;4.446;2023-03-04T07:14:21;11.80;;;1.88;;
41293;SDS011;27037;52.010;4.446;2023-03-04T07:16:47;10.50;;;1.83;;
41293;SDS011;27037;52.010;4.446;2023-03-04T07:19:13;11.77;;;2.13;;
41293;SDS011;27037;52.010;4.446;2023-03-04T07:21:38;13.88;;;2.13;;
41293;SDS011;27037;52.010;4.446;2023-03-04T07:24:04;9.57;;;1.63;;
41293;SDS011;27037;52.010;4.446;2023-03-04T07:26:30;11.63;;;1.33;;
41293;SDS011;27037;52.010;4.446;2023-03-04T07:28:56;6.10;;;1.33;;
41293;SDS011;27037;52.010;4.446;2023-03-04T07:31:25;3.97;;;1.40;;
41293;SDS011;27037;52.010;4.446;2023-03-04T07:34:02;5.57;;;1.10;;
41293;SDS011;27037;52.010;4.446;2023-03-04T07:36:30;5.72;;;1.25;;
41293;SDS011;27037;52.010;4.446;2023-03-04T07:38:56;3.85;;;1.00;;
41293;SDS011;27037;52.010;4.446;2023-03-04T07:41:23;9.30;;;1.60;;
41293;SDS011;27037;52.010;4.446;2023-03-04T07:43:50;2.47;;;1.08;;
41293;SDS011;27037;52.010;4.446;2023-03-04T07:46:16;7.68;;;1.27;;
41293;SDS011;27037;52.010;4.446;2023-03-04T07:48:43;6.55;;;1.17;;
41293;SDS011;27037;52.010;4.446;2023-03-04T07:53:36;10.45;;;1.38;;
41293;SDS011;27037;52.010;4.446;2023-03-04T07:56:07;4.65;;;1.35;;
41293;SDS011;27037;52.010;4.446;2023-03-04T07:58:35;10.27;;;1.35;;
41293;SDS011;27037;52.010;4.446;2023-03-04T08:01:06;4.05;;;0.75;;
41293;SDS011;27037;52.010;4.446;2023-03-04T08:03:33;4.72;;;0.90;;
41293;SDS011;27037;52.010;4.446;2023-03-04T08:05:59;6.28;;;0.88;;
41293;SDS011;27037;52.010;4.446;2023-03-04T08:08:24;4.00;;;0.70;;
41293;SDS011;27037;52.010;4.446;2023-03-04T08:10:50;5.53;;;0.70;;
41293;SDS011;27037;52.010;4.446;2023-03-04T08:13:15;5.00;;;0.70;;
41293;SDS011;27037;52.010;4.446;2023-03-04T08:15:41;6.55;;;0.80;;
41293;SDS011;27037;52.010;4.446;2023-03-04T08:18:07;2.17;;;0.70;;
41293;SDS011;27037;52.010;4.446;2023-03-04T08:20:33;3.28;;;0.60;;
41293;SDS011;27037;52.010;4.446;2023-03-04T08:22:58;3.33;;;0.60;;
41293;SDS011;27037;52.010;4.446;2023-03-04T08:25:24;4.13;;;0.85;;
41293;SDS011;27037;52.010;4.446;2023-03-04T08:27:50;5.03;;;1.00;;
41293;SDS011;27037;52.010;4.446;2023-03-04T08:30:15;3.28;;;0.68;;
41293;SDS011;27037;52.010;4.446;2023-03-04T08:32:41;2.58;;;0.70;;
41293;SDS011;27037;52.010;4.446;2023-03-04T08:35:07;3.03;;;0.60;;
41293;SDS011;27037;52.010;4.446;2023-03-04T08:37:32;3.60;;;0.80;;
41293;SDS011;27037;52.010;4.446;2023-03-04T08:39:58;3.10;;;0.77;;
41293;SDS011;27037;52.010;4.446;2023-03-04T08:42:23;3.97;;;0.70;;
41293;SDS011;27037;52.010;4.446;2023-03-04T08:44:49;2.17;;;0.70;;
41293;SDS011;27037;52.010;4.446;2023-03-04T08:47:15;2.45;;;0.82;;
41293;SDS011;27037;52.010;4.446;2023-03-04T08:49:40;4.57;;;0.80;;
41293;SDS011;27037;52.010;4.446;2023-03-04T08:52:06;4.07;;;0.60;;
41293;SDS011;27037;52.010;4.446;2023-03-04T08:54:32;6.28;;;1.02;;
41293;SDS011;27037;52.010;4.446;2023-03-04T08:56:58;4.03;;;0.60;;
41293;SDS011;27037;52.010;4.446;2023-03-04T08:59:24;3.75;;;0.90;;
41293;SDS011;27037;52.010;4.446;2023-03-04T09:01:49;2.33;;;0.60;;
41293;SDS011;27037;52.010;4.446;2023-03-04T09:04:15;3.78;;;0.90;;
41293;SDS011;27037;52.010;4.446;2023-03-04T09:06:41;3.28;;;0.90;;
41293;SDS011;27037;52.010;4.446;2023-03-04T09:09:06;4.82;;;1.00;;
41293;SDS011;27037;52.010;4.446;2023-03-04T09:11:32;2.17;;;0.70;;
41293;SDS011;27037;52.010;4.446;2023-03-04T09:13:58;4.18;;;0.90;;
41293;SDS011;27037;52.010;4.446;2023-03-04T09:16:24;4.43;;;1.10;;
41293;SDS011;27037;52.010;4.446;2023-03-04T09:18:49;5.28;;;1.02;;
41293;SDS011;27037;52.010;4.446;2023-03-04T09:21:15;7.55;;;1.00;;
41293;SDS011;27037;52.010;4.446;2023-03-04T09:23:41;5.90;;;1.10;;
41293;SDS011;27037;52.010;4.446;2023-03-04T09:26:18;6.65;;;0.95;;
41293;SDS011;27037;52.010;4.446;2023-03-04T09:28:48;7.20;;;1.23;;
41293;SDS011;27037;52.010;4.446;2023-03-04T09:31:15;4.22;;;0.70;;
41293;SDS011;27037;52.010;4.446;2023-03-04T09:33:41;6.10;;;0.80;;
41293;SDS011;27037;52.010;4.446;2023-03-04T09:36:08;4.20;;;0.70;;
41293;SDS011;27037;52.010;4.446;2023-03-04T09:38:35;5.75;;;0.95;;
41293;SDS011;27037;52.010;4.446;2023-03-04T09:41:03;4.75;;;1.00;;
41293;SDS011;27037;52.010;4.446;2023-03-04T09:43:44;3.40;;;0.80;;
41293;SDS011;27037;52.010;4.446;2023-03-04T09:46:11;4.47;;;0.75;;
41293;SDS011;27037;52.010;4.446;2023-03-04T09:48:44;5.05;;;1.00;;
41293;SDS011;27037;52.010;4.446;2023-03-04T09:54:13;4.80;;;0.70;;
41293;SDS011;27037;52.010;4.446;2023-03-04T09:56:45;4.07;;;0.77;;
41293;SDS011;27037;52.010;4.446;2023-03-04T10:01:47;8.63;;;0.90;;
41293;SDS011;27037;52.010;4.446;2023-03-04T10:04:25;9.93;;;1.00;;
41293;SDS011;27037;52.010;4.446;2023-03-04T10:06:59;6.70;;;0.98;;
41293;SDS011;27037;52.010;4.446;2023-03-04T10:12:11;4.80;;;0.70;;
41293;SDS011;27037;52.010;4.446;2023-03-04T10:14:42;2.78;;;0.82;;
41293;SDS011;27037;52.010;4.446;2023-03-04T10:17:23;6.22;;;0.93;;
41293;SDS011;27037;52.010;4.446;2023-03-04T10:20:42;5.47;;;1.08;;
41293;SDS011;27037;52.010;4.446;2023-03-04T10:22:52;4.57;;;0.80;;
41293;SDS011;27037;52.010;4.446;2023-03-04T10:25:23;4.50;;;0.88;;
41293;SDS011;27037;52.010;4.446;2023-03-04T10:28:15;8.20;;;1.10;;
41293;SDS011;27037;52.010;4.446;2023-03-04T10:30:58;3.33;;;1.00;;
41293;SDS011;27037;52.010;4.446;2023-03-04T10:33:33;3.03;;;0.70;;
41293;SDS011;27037;52.010;4.446;2023-03-04T10:38:33;4.70;;;1.00;;
41293;SDS011;27037;52.010;4.446;2023-03-04T10:41:00;6.25;;;1.08;;
41293;SDS011;27037;52.010;4.446;2023-03-04T10:43:35;3.38;;;1.08;;
41293;SDS011;27037;52.010;4.446;2023-03-04T10:46:01;4.93;;;1.10;;
41293;SDS011;27037;52.010;4.446;2023-03-04T10:48:28;6.88;;;1.20;;
41293;SDS011;27037;52.010;4.446;2023-03-04T10:53:42;5.45;;;1.38;;
41293;SDS011;27037;52.010;4.446;2023-03-04T11:05:38;9.45;;;1.40;;
41293;SDS011;27037;52.010;4.446;2023-03-04T11:07:39;10.35;;;1.58;;
41293;SDS011;27037;52.010;4.446;2023-03-04T11:10:13;13.77;;;1.73;;
41293;SDS011;27037;52.010;4.446;2023-03-04T11:12:50;11.82;;;1.60;;
41293;SDS011;27037;52.010;4.446;2023-03-04T11:15:20;6.88;;;0.85;;
41293;SDS011;27037;52.010;4.446;2023-03-04T11:18:04;5.07;;;0.80;;
41293;SDS011;27037;52.010;4.446;2023-03-04T11:20:35;3.38;;;0.65;;
41293;SDS011;27037;52.010;4.446;2023-03-04T11:23:05;4.90;;;0.82;;
41293;SDS011;27037;52.010;4.446;2023-03-04T11:25:39;5.07;;;0.98;;
41293;SDS011;27037;52.010;4.446;2023-03-04T11:30:44;5.95;;;1.00;;
41293;SDS011;27037;52.010;4.446;2023-03-04T11:33:33;4.43;;;0.70;;
41293;SDS011;27037;52.010;4.446;2023-03-04T11:36:12;5.05;;;0.80;;
41293;SDS011;27037;52.010;4.446;2023-03-04T11:38:54;5.47;;;0.88;;
41293;SDS011;27037;52.010;4.446;2023-03-04T11:41:37;6.68;;;0.90;;
41293;SDS011;27037;52.010;4.446;2023-03-04T11:44:07;14.57;;;1.70;;
41293;SDS011;27037;52.010;4.446;2023-03-04T11:49:54;4.13;;;0.90;;
41293;SDS011;27037;52.010;4.446;2023-03-04T11:52:40;6.20;;;0.90;;
41293;SDS011;27037;52.010;4.446;2023-03-04T11:56:19;10.30;;;1.57;;
41293;SDS011;27037;52.010;4.446;2023-03-04T12:01:21;5.45;;;1.02;;
41293;SDS011;27037;52.010;4.446;2023-03-04T12:14:49;2.40;;;0.60;;
41293;SDS011;27037;52.010;4.446;2023-03-04T12:25:32;3.30;;;1.20;;
41293;SDS011;27037;52.010;4.446;2023-03-04T12:33:48;4.68;;;1.50;;
41293;SDS011;27037;52.010;4.446;2023-03-04T12:36:27;5.60;;;1.30;;
41293;SDS011;27037;52.010;4.446;2023-03-04T12:47:59;6.13;;;1.30;;
41293;SDS011;27037;52.010;4.446;2023-03-04T12:53:31;6.85;;;1.27;;
41293;SDS011;27037;52.010;4.446;2023-03-04T12:56:58;9.63;;;1.40;;
41293;SDS011;27037;52.010;4.446;2023-03-04T12:59:14;7.35;;;1.30;;
41293;SDS011;27037;52.010;4.446;2023-03-04T13:01:44;3.97;;;1.20;;
41293;SDS011;27037;52.010;4.446;2023-03-04T13:04:38;7.03;;;1.40;;
41293;SDS011;27037;52.010;4.446;2023-03-04T13:10:13;12.20;;;1.92;;
41293;SDS011;27037;52.010;4.446;2023-03-04T13:12:59;11.68;;;2.00;;
41293;SDS011;27037;52.010;4.446;2023-03-04T13:18:00;13.50;;;1.58;;
41293;SDS011;27037;52.010;4.446;2023-03-04T13:20:45;11.35;;;1.30;;
41293;SDS011;27037;52.010;4.446;2023-03-04T13:28:20;11.63;;;1.65;;
41293;SDS011;27037;52.010;4.446;2023-03-04T13:38:23;14.70;;;1.65;;
41293;SDS011;27037;52.010;4.446;2023-03-04T13:43:56;12.68;;;1.75;;
41293;SDS011;27037;52.010;4.446;2023-03-04T14:01:50;7.53;;;1.40;;
41293;SDS011;27037;52.010;4.446;2023-03-04T14:04:29;11.52;;;1.98;;
41293;SDS011;27037;52.010;4.446;2023-03-04T14:07:01;10.82;;;1.63;;
41293;SDS011;27037;52.010;4.446;2023-03-04T14:09:40;8.25;;;1.70;;
41293;SDS011;27037;52.010;4.446;2023-03-04T14:12:18;10.38;;;1.70;;
41293;SDS011;27037;52.010;4.446;2023-03-04T14:14:46;13.20;;;1.95;;
41293;SDS011;27037;52.010;4.446;2023-03-04T14:17:20;16.15;;;2.20;;
41293;SDS011;27037;52.010;4.446;2023-03-04T14:19:48;18.33;;;2.25;;
41293;SDS011;27037;52.010;4.446;2023-03-04T14:24:59;14.05;;;2.15;;
41293;SDS011;27037;52.010;4.446;2023-03-04T14:27:27;13.63;;;1.90;;
41293;SDS011;27037;52.010;4.446;2023-03-04T14:29:54;14.88;;;2.20;;
41293;SDS011;27037;52.010;4.446;2023-03-04T14:32:24;16.23;;;2.20;;
41293;SDS011;27037;52.010;4.446;2023-03-04T14:34:50;13.45;;;1.85;;
41293;SDS011;27037;52.010;4.446;2023-03-04T14:37:23;18.58;;;2.30;;
41293;SDS011;27037;52.010;4.446;2023-03-04T14:39:53;17.88;;;1.90;;
41293;SDS011;27037;52.010;4.446;2023-03-04T14:42:22;10.68;;;1.55;;
41293;SDS011;27037;52.010;4.446;2023-03-04T14:44:51;15.30;;;2.35;;
41293;SDS011;27037;52.010;4.446;2023-03-04T14:47:36;13.77;;;1.85;;
41293;SDS011;27037;52.010;4.446;2023-03-04T14:50:06;21.13;;;2.90;;
41293;SDS011;27037;52.010;4.446;2023-03-04T14:52:38;18.13;;;2.75;;
41293;SDS011;27037;52.010;4.446;2023-03-04T14:57:53;12.93;;;2.47;;
41293;SDS011;27037;52.010;4.446;2023-03-04T15:00:34;22.52;;;2.30;;
41293;SDS011;27037;52.010;4.446;2023-03-04T15:03:21;16.38;;;3.30;;
41293;SDS011;27037;52.010;4.446;2023-03-04T15:05:50;19.83;;;3.30;;
41293;SDS011;27037;52.010;4.446;2023-03-04T15:08:19;14.65;;;2.15;;
41293;SDS011;27037;52.010;4.446;2023-03-04T15:11:00;13.55;;;2.13;;
41293;SDS011;27037;52.010;4.446;2023-03-04T15:13:45;11.80;;;1.77;;
41293;SDS011;27037;52.010;4.446;2023-03-04T15:16:14;9.18;;;1.50;;
41293;SDS011;27037;52.010;4.446;2023-03-04T15:18:53;18.38;;;2.50;;
41293;SDS011;27037;52.010;4.446;2023-03-04T15:23:53;15.63;;;2.22;;
41293;SDS011;27037;52.010;4.446;2023-03-04T15:26:19;13.02;;;2.08;;
41293;SDS011;27037;52.010;4.446;2023-03-04T15:28:45;15.93;;;2.00;;
41293;SDS011;27037;52.010;4.446;2023-03-04T15:31:15;16.58;;;2.30;;
41293;SDS011;27037;52.010;4.446;2023-03-04T15:33:42;13.90;;;1.95;;
41293;SDS011;27037;52.010;4.446;2023-03-04T15:36:10;17.60;;;2.42;;
41293;SDS011;27037;52.010;4.446;2023-03-04T15:38:39;18.13;;;2.40;;
41293;SDS011;27037;52.010;4.446;2023-03-04T15:41:08;14.38;;;2.03;;
41293;SDS011;27037;52.010;4.446;2023-03-04T15:43:36;18.50;;;2.30;;
41293;SDS011;27037;52.010;4.446;2023-03-04T15:46:02;14.50;;;2.25;;
41293;SDS011;27037;52.010;4.446;2023-03-04T15:48:27;12.02;;;1.92;;
41293;SDS011;27037;52.010;4.446;2023-03-04T15:50:54;12.77;;;1.80;;
41293;SDS011;27037;52.010;4.446;2023-03-04T15:53:35;14.95;;;2.28;;
41293;SDS011;27037;52.010;4.446;2023-03-04T15:56:06;13.35;;;2.53;;
41293;SDS011;27037;52.010;4.446;2023-03-04T15:58:36;24.92;;;2.60;;
41293;SDS011;27037;52.010;4.446;2023-03-04T16:01:03;14.50;;;1.88;;
41293;SDS011;27037;52.010;4.446;2023-03-04T16:03:29;13.05;;;2.10;;
41293;SDS011;27037;52.010;4.446;2023-03-04T16:05:55;18.70;;;2.13;;
41293;SDS011;27037;52.010;4.446;2023-03-04T16:08:22;13.93;;;1.98;;
41293;SDS011;27037;52.010;4.446;2023-03-04T16:10:51;10.75;;;2.05;;
41293;SDS011;27037;52.010;4.446;2023-03-04T16:13:19;14.13;;;2.08;;
41293;SDS011;27037;52.010;4.446;2023-03-04T16:15:47;9.65;;;1.65;;
41293;SDS011;27037;52.010;4.446;2023-03-04T16:18:13;13.45;;;1.80;;
41293;SDS011;27037;52.010;4.446;2023-03-04T16:20:41;11.52;;;1.85;;
41293;SDS011;27037;52.010;4.446;2023-03-04T16:23:12;14.13;;;1.80;;
41293;SDS011;27037;52.010;4.446;2023-03-04T16:25:41;9.48;;;1.98;;
41293;SDS011;27037;52.010;4.446;2023-03-04T16:28:09;11.43;;;2.05;;
41293;SDS011;27037;52.010;4.446;2023-03-04T16:30:36;9.65;;;1.55;;
41293;SDS011;27037;52.010;4.446;2023-03-04T16:33:02;13.48;;;1.88;;
41293;SDS011;27037;52.010;4.446;2023-03-04T16:35:27;11.77;;;1.50;;
41293;SDS011;27037;52.010;4.446;2023-03-04T16:37:54;9.32;;;2.00;;
41293;SDS011;27037;52.010;4.446;2023-03-04T16:40:23;11.35;;;1.75;;
41293;SDS011;27037;52.010;4.446;2023-03-04T16:42:54;6.63;;;1.30;;
41293;SDS011;27037;52.010;4.446;2023-03-04T16:45:21;11.27;;;2.13;;
41293;SDS011;27037;52.010;4.446;2023-03-04T16:47:49;12.60;;;1.75;;
41293;SDS011;27037;52.010;4.446;2023-03-04T16:50:15;6.78;;;1.33;;